createdAt,value
2019-04-05T00:01:08.095Z,22.10
2019-04-05T00:03:36.841Z,21.97
2019-04-05T00:06:05.568Z,22.43
2019-04-05T00:08:34.304Z,20.50
2019-04-05T00:11:03.252Z,20.60
2019-04-05T00:13:32.058Z,21.63
2019-04-05T00:16:01.206Z,21.33
2019-04-05T00:18:29.937Z,21.80
2019-04-05T00:20:58.711Z,23.13
2019-04-05T00:23:27.421Z,21.73
2019-04-05T00:25:56.790Z,22.53
2019-04-05T00:28:25.499Z,22.50
2019-04-05T00:30:54.227Z,21.70
2019-04-05T00:33:22.955Z,22.27
2019-04-05T00:35:51.730Z,21.43
2019-04-05T00:38:20.714Z,21.87
2019-04-05T00:40:49.506Z,22.33
2019-04-05T00:43:18.355Z,24.10
2019-04-05T00:45:47.231Z,23.27
2019-04-05T00:48:16.009Z,23.07
2019-04-05T00:50:44.879Z,23.80
2019-04-05T00:53:13.586Z,24.43
2019-04-05T00:55:42.422Z,22.67
2019-04-05T00:58:11.260Z,22.03
2019-04-05T01:00:40.082Z,25.30
2019-04-05T01:03:08.937Z,25.03
2019-04-05T01:05:37.812Z,24.87
2019-04-05T01:08:06.585Z,24.97
2019-04-05T01:10:35.454Z,25.27
2019-04-05T01:13:04.161Z,25.40
2019-04-05T01:15:40.879Z,24.53
2019-04-05T01:18:03.527Z,26.10
2019-04-05T01:20:34.677Z,26.07
2019-04-05T01:23:03.522Z,28.03
2019-04-05T01:25:34.251Z,27.00
2019-04-05T01:28:03.136Z,25.67
2019-04-05T01:30:32.090Z,26.00
2019-04-05T01:33:00.954Z,26.57
2019-04-05T01:35:29.687Z,25.60
2019-04-05T01:37:58.619Z,27.10
2019-04-05T01:40:29.594Z,25.53
2019-04-05T01:42:58.465Z,26.03
2019-04-05T01:45:27.246Z,26.17
2019-04-05T01:47:56.113Z,25.87
2019-04-05T01:50:24.964Z,26.47
2019-04-05T01:52:53.863Z,26.10
2019-04-05T01:55:22.651Z,26.43
2019-04-05T01:57:51.524Z,26.00
2019-04-05T02:00:20.427Z,28.60
2019-04-05T02:02:49.290Z,25.47
2019-04-05T02:05:18.233Z,26.77
2019-04-05T02:07:47.107Z,26.10
2019-04-05T02:10:16.054Z,27.23
2019-04-05T02:12:44.946Z,26.03
2019-04-05T02:15:27.848Z,24.03
2019-04-05T02:17:57.068Z,24.93
2019-04-05T02:20:26.314Z,24.37
2019-04-05T02:22:55.572Z,25.37
2019-04-05T02:25:24.482Z,29.03
2019-04-05T02:27:53.359Z,28.80
2019-04-05T02:30:22.311Z,28.00
2019-04-05T02:32:51.109Z,26.60
2019-04-05T02:35:19.950Z,26.80
2019-04-05T02:37:48.834Z,28.27
2019-04-05T02:40:19.242Z,65.10
2019-04-05T02:42:50.391Z,54.37
2019-04-05T02:45:19.471Z,51.20
2019-04-05T02:47:54.048Z,50.60
2019-04-05T02:50:25.853Z,40.37
2019-04-05T02:52:57.666Z,35.37
2019-04-05T02:55:28.517Z,30.77
2019-04-05T02:58:00.122Z,41.23
2019-04-05T03:00:29.961Z,40.17
2019-04-05T03:02:58.803Z,34.43
2019-04-05T03:05:27.921Z,37.57
2019-04-05T03:07:56.881Z,36.93
2019-04-05T03:10:52.499Z,34.87
2019-04-05T03:13:24.022Z,35.00
2019-04-05T03:15:56.128Z,32.27
2019-04-05T03:18:27.639Z,32.60
2019-04-05T03:20:59.441Z,31.83
2019-04-05T03:23:31.499Z,32.23
2019-04-05T03:26:03.553Z,31.60
2019-04-05T03:28:35.092Z,32.70
2019-04-05T03:31:04.600Z,32.93
2019-04-05T03:33:33.999Z,34.33
2019-04-05T03:36:02.901Z,32.57
2019-04-05T03:38:31.790Z,36.13
2019-04-05T03:41:01.175Z,33.03
2019-04-05T03:43:30.189Z,33.37
2019-04-05T03:45:59.066Z,34.20
2019-04-05T03:48:28.076Z,32.83
2019-04-05T03:50:56.950Z,32.37
2019-04-05T03:53:25.976Z,32.27
2019-04-05T03:55:55.478Z,32.20
2019-04-05T03:58:24.273Z,34.93
2019-04-05T04:00:54.008Z,32.47
2019-04-05T04:03:22.891Z,33.90
2019-04-05T04:05:51.861Z,32.83
2019-04-05T04:08:23.425Z,32.90
2019-04-05T04:10:52.695Z,33.90
2019-04-05T04:13:21.535Z,32.27
2019-04-05T04:15:51.020Z,33.90
2019-04-05T04:18:19.786Z,36.40
2019-04-05T04:20:51.061Z,37.27
2019-04-05T04:23:22.847Z,33.23
2019-04-05T04:25:51.722Z,32.87
2019-04-05T04:28:20.763Z,37.27
2019-04-05T04:30:49.749Z,41.33
2019-04-05T04:33:18.597Z,37.63
2019-04-05T04:35:47.811Z,37.43
2019-04-05T04:38:17.062Z,35.30
2019-04-05T04:40:46.008Z,35.93
2019-04-05T04:43:14.985Z,36.97
2019-04-05T04:45:43.820Z,35.57
2019-04-05T04:48:12.686Z,37.40
2019-04-05T04:50:41.939Z,37.20
2019-04-05T04:53:10.913Z,35.50
2019-04-05T04:55:39.753Z,36.23
2019-04-05T04:58:08.929Z,34.33
2019-04-05T05:00:37.773Z,36.47
2019-04-05T05:03:06.759Z,41.90
2019-04-05T05:05:35.719Z,37.20
2019-04-05T05:08:04.849Z,34.37
2019-04-05T05:10:33.770Z,35.20
2019-04-05T05:13:02.630Z,47.88
2019-04-05T05:15:31.478Z,40.50
2019-04-05T05:18:00.544Z,36.70
2019-04-05T05:20:29.383Z,37.80
2019-04-05T05:22:58.467Z,40.23
2019-04-05T05:25:27.478Z,34.60
2019-04-05T05:27:56.456Z,37.87
2019-04-05T05:30:26.118Z,37.47
2019-04-05T05:32:55.051Z,39.53
2019-04-05T05:35:24.003Z,40.23
2019-04-05T05:37:53.139Z,38.13
2019-04-05T05:40:34.080Z,36.83
2019-04-05T05:42:52.561Z,38.83
2019-04-05T05:45:21.421Z,37.90
2019-04-05T05:47:52.044Z,38.40
2019-04-05T05:50:20.835Z,37.13
2019-04-05T05:52:50.111Z,36.77
2019-04-05T05:55:18.821Z,37.63
2019-04-05T05:57:47.624Z,38.27
2019-04-05T06:00:16.494Z,36.37
2019-04-05T06:02:48.168Z,38.03
2019-04-05T06:05:15.784Z,37.30
2019-04-05T06:07:44.562Z,36.30
2019-04-05T06:10:13.443Z,37.50
2019-04-05T06:12:42.219Z,37.73
2019-04-05T06:15:11.288Z,38.10
2019-04-05T06:17:40.060Z,37.03
2019-04-05T06:20:09.241Z,36.30
2019-04-05T06:22:38.014Z,37.73
2019-04-05T06:25:06.982Z,36.50
2019-04-05T06:27:35.709Z,36.13
2019-04-05T06:30:06.148Z,38.60
2019-04-05T06:32:34.921Z,35.57
2019-04-05T06:35:05.697Z,35.20
2019-04-05T06:37:34.404Z,34.53
2019-04-05T06:40:05.800Z,35.87
2019-04-05T06:42:34.580Z,35.40
2019-04-05T06:45:04.622Z,36.00
2019-04-05T06:47:33.359Z,35.53
2019-04-05T06:50:02.408Z,35.00
2019-04-05T06:52:31.139Z,36.77
2019-04-05T06:54:59.855Z,35.10
2019-04-05T06:57:28.658Z,36.50
2019-04-05T06:59:57.391Z,35.27
2019-04-05T07:02:26.255Z,35.90
2019-04-05T07:04:54.972Z,34.50
2019-04-05T07:07:23.705Z,33.90
2019-04-05T07:09:52.482Z,32.97
2019-04-05T07:12:21.238Z,31.17
2019-04-05T07:14:49.948Z,31.80
2019-04-05T07:17:18.678Z,32.70
2019-04-05T07:19:47.397Z,29.30
2019-04-05T07:22:16.214Z,27.63
2019-04-05T07:24:44.940Z,27.47
2019-04-05T07:27:13.805Z,26.80
2019-04-05T07:29:42.515Z,24.87
2019-04-05T07:32:11.311Z,25.23
2019-04-05T07:34:40.092Z,23.37
2019-04-05T07:37:08.849Z,24.80
2019-04-05T07:39:37.546Z,24.37
2019-04-05T07:42:06.416Z,24.00
2019-04-05T07:44:35.191Z,23.90
2019-04-05T07:47:03.991Z,23.83
2019-04-05T07:49:32.709Z,23.93
2019-04-05T07:52:01.482Z,19.60
2019-04-05T07:54:30.230Z,18.23
2019-04-05T07:56:58.947Z,20.57
2019-04-05T07:59:27.679Z,22.17
2019-04-05T08:01:56.460Z,23.13
2019-04-05T08:04:25.292Z,22.77
2019-04-05T08:06:56.727Z,23.13
2019-04-05T08:09:26.089Z,21.80
2019-04-05T08:11:55.351Z,20.93
2019-04-05T08:14:25.437Z,18.90
2019-04-05T08:16:54.276Z,18.40
2019-04-05T08:19:23.082Z,17.27
2019-04-05T08:21:51.791Z,20.83
2019-04-05T08:24:20.525Z,24.37
2019-04-05T08:26:49.301Z,29.13
2019-04-05T08:29:18.086Z,29.53
2019-04-05T08:31:46.799Z,28.97
2019-04-05T08:34:15.545Z,28.57
2019-04-05T08:36:44.323Z,30.30
2019-04-05T08:39:13.142Z,34.10
2019-04-05T08:41:41.853Z,29.17
2019-04-05T08:44:10.799Z,25.97
2019-04-05T08:46:39.577Z,23.73
2019-04-05T08:49:10.853Z,22.87
2019-04-05T08:51:38.811Z,17.13
2019-04-05T08:54:07.547Z,20.03
2019-04-05T08:56:36.269Z,19.80
2019-04-05T08:59:05.000Z,18.03
2019-04-05T09:01:33.810Z,17.57
2019-04-05T09:04:02.967Z,17.57
2019-04-05T09:06:31.726Z,18.10
2019-04-05T09:09:00.443Z,20.77
2019-04-05T09:11:29.276Z,21.17
2019-04-05T09:13:58.130Z,22.87
2019-04-05T09:16:26.874Z,17.23
2019-04-05T09:18:55.730Z,17.73
2019-04-05T09:21:24.470Z,15.07
2019-04-05T09:23:53.253Z,16.37
2019-04-05T09:26:22.056Z,16.77
2019-04-05T09:28:50.779Z,16.23
2019-04-05T09:31:19.704Z,17.10
2019-04-05T09:33:48.621Z,17.93
2019-04-05T09:36:17.450Z,17.80
2019-04-05T09:38:46.235Z,17.63
2019-04-05T09:41:14.980Z,16.80
2019-04-05T09:43:43.700Z,16.80
2019-04-05T09:46:12.439Z,18.63
2019-04-05T09:48:41.227Z,17.50
2019-04-05T09:51:10.061Z,16.20
2019-04-05T09:53:38.783Z,14.57
2019-04-05T09:56:07.512Z,16.27
2019-04-05T09:58:36.300Z,14.90
2019-04-05T10:01:05.176Z,13.93
2019-04-05T10:03:33.957Z,16.73
2019-04-05T10:06:02.740Z,15.13
2019-04-05T10:08:31.640Z,15.97
2019-04-05T10:11:00.596Z,15.50
2019-04-05T10:13:29.330Z,13.43
2019-04-05T10:15:58.111Z,14.17
2019-04-05T10:18:26.847Z,13.23
2019-04-05T10:20:55.596Z,12.70
2019-04-05T10:23:24.447Z,12.63
2019-04-05T10:25:53.187Z,13.40
2019-04-05T10:28:22.003Z,13.63
2019-04-05T10:30:52.063Z,13.10
2019-04-05T10:33:21.051Z,13.77
2019-04-05T10:35:49.838Z,11.13
2019-04-05T10:38:18.567Z,14.17
2019-04-05T10:40:47.352Z,14.30
2019-04-05T10:43:16.138Z,14.63
2019-04-05T10:45:45.365Z,14.57
2019-04-05T10:48:14.161Z,14.23
2019-04-05T10:50:43.010Z,14.03
2019-04-05T10:53:11.826Z,13.97
2019-04-05T10:55:40.533Z,14.07
2019-04-05T10:58:10.324Z,13.67
2019-04-05T11:00:39.233Z,13.50
2019-04-05T11:03:08.026Z,14.27
2019-04-05T11:05:36.785Z,12.80
2019-04-05T11:08:05.325Z,13.80
2019-04-05T11:10:33.619Z,14.00
2019-04-05T11:13:01.898Z,13.87
2019-04-05T11:15:31.026Z,14.00
2019-04-05T11:17:59.578Z,13.10
2019-04-05T11:20:27.898Z,14.87
2019-04-05T11:22:56.498Z,13.63
2019-04-05T11:25:24.858Z,14.07
2019-04-05T11:27:53.155Z,11.93
2019-04-05T11:30:39.237Z,12.50
2019-04-05T11:33:07.743Z,12.47
2019-04-05T11:35:36.227Z,13.80
2019-04-05T11:38:04.688Z,13.13
2019-04-05T11:40:33.467Z,13.20
2019-04-05T11:43:02.140Z,13.70
2019-04-05T11:45:32.037Z,12.60
2019-04-05T11:48:01.876Z,13.67
2019-04-05T11:50:34.784Z,14.23
2019-04-05T11:53:00.497Z,11.73
2019-04-05T11:55:28.890Z,12.67
2019-04-05T11:57:57.268Z,13.50
2019-04-05T12:00:25.622Z,14.83
2019-04-05T12:02:53.918Z,12.73
2019-04-05T12:05:22.956Z,13.53
2019-04-05T12:07:52.207Z,13.47
2019-04-05T12:10:20.592Z,12.50
2019-04-05T12:12:49.000Z,12.27
2019-04-05T12:15:17.380Z,10.63
2019-04-05T12:17:45.740Z,11.87
2019-04-05T12:20:14.220Z,13.00
2019-04-05T12:22:42.498Z,13.77
2019-04-05T12:25:12.347Z,13.23
2019-04-05T12:27:40.642Z,14.37
2019-04-05T12:30:09.188Z,15.33
2019-04-05T12:32:41.350Z,15.40
2019-04-05T12:35:08.497Z,13.93
2019-04-05T12:37:49.172Z,14.47
2019-04-05T12:40:10.270Z,13.17
2019-04-05T12:42:38.326Z,13.30
2019-04-05T12:45:06.704Z,13.13
2019-04-05T12:47:35.069Z,12.63
2019-04-05T12:50:04.888Z,12.50
2019-04-05T12:52:33.210Z,11.23
2019-04-05T12:55:01.630Z,9.90
2019-04-05T12:57:29.999Z,8.83
2019-04-05T12:59:58.306Z,10.17
2019-04-05T13:02:33.407Z,9.43
2019-04-05T13:04:56.727Z,10.40
2019-04-05T13:07:25.048Z,10.30
2019-04-05T13:09:55.056Z,10.57
2019-04-05T13:12:26.159Z,10.90
2019-04-05T13:14:55.349Z,11.90
2019-04-05T13:17:23.390Z,11.67
2019-04-05T13:19:51.757Z,11.63
2019-04-05T13:22:22.595Z,11.63
2019-04-05T13:24:50.096Z,11.67
2019-04-05T13:27:18.394Z,12.20
2019-04-05T13:29:47.348Z,11.77
2019-04-05T13:32:17.188Z,12.90
2019-04-05T13:34:46.564Z,13.60
2019-04-05T13:37:20.631Z,15.53
2019-04-05T13:39:45.021Z,14.17
2019-04-05T13:42:13.377Z,14.30
2019-04-05T13:44:41.699Z,14.67
2019-04-05T13:47:10.164Z,13.10
2019-04-05T13:49:40.516Z,15.70
2019-04-05T13:52:09.620Z,16.70
2019-04-05T13:54:40.327Z,16.13
2019-04-05T13:57:10.518Z,15.10
2019-04-05T13:59:38.524Z,16.70
2019-04-05T14:02:06.977Z,16.27
2019-04-05T14:04:35.384Z,16.70
2019-04-05T14:07:04.005Z,12.33
2019-04-05T14:09:32.397Z,16.10
2019-04-05T14:12:00.757Z,15.67
2019-04-05T14:14:29.077Z,15.07
2019-04-05T14:16:57.409Z,15.83
2019-04-05T14:19:28.637Z,16.97
2019-04-05T14:22:07.737Z,16.13
2019-04-05T14:24:25.811Z,15.47
2019-04-05T14:26:54.129Z,14.17
2019-04-05T14:29:22.515Z,15.70
2019-04-05T14:31:50.846Z,15.97
2019-04-05T14:34:23.431Z,15.43
2019-04-05T14:36:51.978Z,15.13
2019-04-05T14:39:20.224Z,14.23
2019-04-05T14:41:48.524Z,16.50
2019-04-05T14:44:16.904Z,17.47
2019-04-05T14:46:45.291Z,17.77
2019-04-05T14:49:13.633Z,17.37
2019-04-05T14:51:52.620Z,18.60
2019-04-05T14:54:12.064Z,18.50
2019-04-05T14:56:40.443Z,18.43
2019-04-05T14:59:08.802Z,19.30
2019-04-05T15:01:37.136Z,16.03
2019-04-05T15:04:05.495Z,17.73
2019-04-05T15:06:33.795Z,16.77
2019-04-05T15:09:02.237Z,15.37
2019-04-05T15:11:30.626Z,15.00
2019-04-05T15:13:58.946Z,18.40
2019-04-05T15:16:27.255Z,16.27
2019-04-05T15:18:55.567Z,17.53
2019-04-05T15:21:24.055Z,16.43
2019-04-05T15:23:52.354Z,16.00
2019-04-05T15:26:21.402Z,16.43
2019-04-05T15:28:49.826Z,16.47
2019-04-05T15:31:18.113Z,17.40
2019-04-05T15:33:46.432Z,14.80
2019-04-05T15:36:14.721Z,17.70
2019-04-05T15:38:43.061Z,13.80
2019-04-05T15:41:11.386Z,17.47
2019-04-05T15:43:39.688Z,18.00
2019-04-05T15:46:07.984Z,16.35
2019-04-05T15:48:36.291Z,19.87
2019-04-05T15:51:04.682Z,19.30
2019-04-05T15:53:33.063Z,19.37
2019-04-05T15:56:03.890Z,19.57
2019-04-05T15:58:31.489Z,21.37
2019-04-05T16:01:04.177Z,19.20
2019-04-05T16:03:32.243Z,17.53
2019-04-05T16:06:01.448Z,17.27
2019-04-05T16:08:29.828Z,18.83
2019-04-05T16:10:58.123Z,16.97
2019-04-05T16:13:26.509Z,20.77
2019-04-05T16:15:54.882Z,18.53
2019-04-05T16:18:23.299Z,17.23
2019-04-05T16:20:51.633Z,17.37
2019-04-05T16:23:20.026Z,18.33
2019-04-05T16:25:48.304Z,17.60
2019-04-05T16:28:16.613Z,18.63
2019-04-05T16:30:45.365Z,20.30
2019-04-05T16:33:13.788Z,19.67
2019-04-05T16:35:42.147Z,18.63
2019-04-05T16:38:10.532Z,20.70
2019-04-05T16:40:38.851Z,18.40
2019-04-05T16:43:07.139Z,19.90
2019-04-05T16:45:38.343Z,18.67
2019-04-05T16:48:05.556Z,20.13
2019-04-05T16:50:33.928Z,17.17
2019-04-05T16:53:02.204Z,19.03
2019-04-05T16:55:30.605Z,20.57
2019-04-05T16:57:59.023Z,20.23
2019-04-05T17:00:27.460Z,22.85
2019-04-05T17:02:55.823Z,17.93
2019-04-05T17:05:24.228Z,18.20
2019-04-05T17:07:52.555Z,19.50
2019-04-05T17:10:20.947Z,18.13
2019-04-05T17:12:49.343Z,15.67
2019-04-05T17:15:17.771Z,18.43
2019-04-05T17:17:46.147Z,18.67
2019-04-05T17:20:14.544Z,18.17
2019-04-05T17:22:42.893Z,18.03
2019-04-05T17:25:11.369Z,18.27
2019-04-05T17:27:39.710Z,19.23
2019-04-05T17:30:08.137Z,18.87
2019-04-05T17:32:36.443Z,20.77
2019-04-05T17:35:06.131Z,20.20
2019-04-05T17:37:34.435Z,18.33
2019-04-05T17:40:04.292Z,15.73
2019-04-05T17:42:34.790Z,18.93
2019-04-05T17:45:03.961Z,20.03
2019-04-05T17:47:32.342Z,17.10
2019-04-05T17:50:00.628Z,19.80
2019-04-05T17:52:29.051Z,21.03
2019-04-05T17:54:57.468Z,20.93
2019-04-05T17:57:25.840Z,21.33
2019-04-05T17:59:54.282Z,19.90
2019-04-05T18:02:22.738Z,19.13
2019-04-05T18:04:51.041Z,21.17
2019-04-05T18:07:19.426Z,20.53
2019-04-05T18:09:47.715Z,22.77
2019-04-05T18:12:16.021Z,21.70
2019-04-05T18:14:44.412Z,22.67
2019-04-05T18:17:13.007Z,22.83
2019-04-05T18:19:41.343Z,22.73
2019-04-05T18:22:09.672Z,23.00
2019-04-05T18:24:38.029Z,24.43
2019-04-05T18:27:06.345Z,26.13
2019-04-05T18:29:34.703Z,24.80
2019-04-05T18:32:03.079Z,25.70
2019-04-05T18:34:31.407Z,27.60
2019-04-05T18:36:59.840Z,25.87
2019-04-05T18:39:28.119Z,24.63
2019-04-05T18:41:56.425Z,27.97
2019-04-05T18:44:24.730Z,28.33
2019-04-05T18:46:53.086Z,26.13
2019-04-05T18:49:21.393Z,27.47
2019-04-05T18:51:49.696Z,29.20
2019-04-05T18:54:18.141Z,30.43
2019-04-05T18:56:46.425Z,30.33
2019-04-05T18:59:14.812Z,28.63
2019-04-05T19:01:43.189Z,26.93
2019-04-05T19:04:11.582Z,28.83
2019-04-05T19:06:39.860Z,29.00
2019-04-05T19:09:08.284Z,28.80
2019-04-05T19:11:36.606Z,28.77
2019-04-05T19:14:05.023Z,27.50
2019-04-05T19:16:37.375Z,28.27
2019-04-05T19:19:09.241Z,24.70
2019-04-05T19:21:41.679Z,28.20
2019-04-05T19:24:12.434Z,29.73
2019-04-05T19:26:45.133Z,24.40
2019-04-05T19:29:14.093Z,23.70
2019-04-05T19:49:12.527Z,26.57
2019-04-05T19:51:40.908Z,27.13
2019-04-05T19:54:09.201Z,26.00
2019-04-05T19:56:37.521Z,25.17
2019-04-05T19:59:05.866Z,27.13
2019-04-05T20:01:34.248Z,26.83
2019-04-05T20:04:02.594Z,27.00
2019-04-05T20:06:31.016Z,25.33
2019-04-05T20:08:59.361Z,26.10
2019-04-05T20:11:27.688Z,27.80
2019-04-05T20:13:56.032Z,26.60
2019-04-05T20:16:24.335Z,27.10
2019-04-05T20:18:52.619Z,27.17
2019-04-05T20:21:20.919Z,26.60
2019-04-05T20:23:49.296Z,25.87
2019-04-05T20:26:17.751Z,25.70
2019-04-05T20:28:46.029Z,26.57
2019-04-05T20:31:14.390Z,26.20
2019-04-05T20:33:42.676Z,25.73
2019-04-05T20:36:10.957Z,27.73
2019-04-05T20:38:39.259Z,26.13
2019-04-05T20:41:07.639Z,25.93
2019-04-05T20:43:35.952Z,19.50
2019-04-05T20:46:04.306Z,25.50
2019-04-05T20:48:32.616Z,23.03
2019-04-05T20:51:00.894Z,24.70
2019-04-05T20:53:29.219Z,23.23
2019-04-05T20:55:57.507Z,25.87
2019-04-05T20:58:25.903Z,24.93
2019-04-05T21:00:54.188Z,25.83
2019-04-05T21:03:22.584Z,26.80
2019-04-05T21:05:50.857Z,25.70
2019-04-05T21:08:19.226Z,26.97
2019-04-05T21:10:47.512Z,25.83
2019-04-05T21:13:15.814Z,28.70
2019-04-05T21:15:44.089Z,28.00
2019-04-05T21:18:12.437Z,25.80
2019-04-05T21:20:40.749Z,28.63
2019-04-05T21:23:09.067Z,29.43
2019-04-05T21:25:37.339Z,30.10
2019-04-05T21:28:05.661Z,29.33
2019-04-05T21:30:34.010Z,29.63
2019-04-05T21:33:02.375Z,29.13
2019-04-05T21:35:30.727Z,29.67
2019-04-05T21:37:59.042Z,28.77
2019-04-05T21:40:27.409Z,28.10
2019-04-05T21:42:55.686Z,26.70
2019-04-05T21:45:24.021Z,29.60
2019-04-05T21:47:52.320Z,28.47
2019-04-05T21:50:20.691Z,29.20
2019-04-05T21:52:48.965Z,29.07
2019-04-05T21:55:17.268Z,31.60
2019-04-05T21:57:45.559Z,30.00
2019-04-05T22:00:15.426Z,29.40
2019-04-05T22:02:43.696Z,30.23
2019-04-05T22:05:12.160Z,30.80
2019-04-05T22:07:40.445Z,29.93
2019-04-05T22:10:08.829Z,30.57
2019-04-05T22:12:37.109Z,31.27
2019-04-05T22:15:05.475Z,31.03
2019-04-05T22:17:33.751Z,29.90
2019-04-05T22:20:02.059Z,32.13
2019-04-05T22:22:30.337Z,31.00
2019-04-05T22:24:59.687Z,26.83
2019-04-05T22:27:28.105Z,31.70
2019-04-05T22:29:56.569Z,31.23
2019-04-05T22:32:24.857Z,29.97
2019-04-05T22:34:53.239Z,32.67
2019-04-05T22:37:21.530Z,31.73
2019-04-05T22:39:49.820Z,32.00
2019-04-05T22:42:18.118Z,31.23
2019-04-05T22:44:46.395Z,27.67
2019-04-05T22:47:14.699Z,31.33
2019-04-05T22:49:42.979Z,30.40
2019-04-05T22:52:11.304Z,32.87
2019-04-05T22:54:39.571Z,34.27
2019-04-05T22:57:07.882Z,33.13
2019-04-05T22:59:36.158Z,32.20
2019-04-05T23:02:04.538Z,32.93
2019-04-05T23:04:32.820Z,30.83
2019-04-05T23:07:01.123Z,34.80
2019-04-05T23:09:29.446Z,31.93
2019-04-05T23:11:57.806Z,29.83
2019-04-05T23:14:26.071Z,32.80
2019-04-05T23:16:54.358Z,29.00
2019-04-05T23:19:22.719Z,34.83
2019-04-05T23:21:51.013Z,32.43
2019-04-05T23:24:19.375Z,29.87
2019-04-05T23:26:47.656Z,33.07
2019-04-05T23:29:15.956Z,33.93
2019-04-05T23:31:44.236Z,34.93
2019-04-05T23:34:12.532Z,32.77
2019-04-05T23:36:40.811Z,32.63
2019-04-05T23:39:09.108Z,32.97
2019-04-05T23:41:37.463Z,33.67
2019-04-05T23:44:05.772Z,34.57
2019-04-05T23:46:34.043Z,33.53
2019-04-05T23:49:02.352Z,35.27
2019-04-05T23:51:30.706Z,34.73
2019-04-05T23:53:59.163Z,34.53
2019-04-05T23:56:27.450Z,34.70
2019-04-05T23:58:55.831Z,34.27
